createdAt,value
2019-03-25T00:02:30.030Z,4.51
2019-03-25T00:06:38.279Z,4.55
2019-03-25T00:10:47.154Z,4.30
2019-03-25T00:14:55.620Z,4.38
2019-03-25T00:19:03.857Z,4.21
2019-03-25T00:23:12.324Z,4.35
2019-03-25T00:27:20.616Z,4.37
2019-03-25T00:31:28.883Z,4.38
2019-03-25T00:35:37.752Z,4.32
2019-03-25T00:39:46.214Z,4.20
2019-03-25T00:43:54.697Z,4.37
2019-03-25T00:48:03.403Z,4.37
2019-03-25T00:52:11.575Z,4.21
2019-03-25T00:56:20.087Z,3.99
2019-03-25T01:00:28.938Z,3.71
2019-03-25T01:04:37.100Z,3.90
2019-03-25T01:08:45.732Z,3.96
2019-03-25T01:12:54.236Z,3.89
2019-03-25T01:17:02.504Z,4.10
2019-03-25T01:21:12.636Z,4.29
2019-03-25T01:25:21.420Z,4.22
2019-03-25T01:29:29.714Z,4.13
2019-03-25T01:33:38.049Z,4.24
2019-03-25T01:37:46.396Z,4.32
2019-03-25T01:41:54.714Z,4.38
2019-03-25T01:46:03.271Z,4.24
2019-03-25T01:50:11.650Z,4.19
2019-03-25T01:54:20.095Z,4.05
2019-03-25T01:58:28.891Z,4.21
2019-03-25T02:02:37.274Z,4.16
2019-03-25T02:06:46.048Z,3.74
2019-03-25T02:10:54.904Z,3.52
2019-03-25T02:15:03.236Z,3.37
2019-03-25T02:19:11.756Z,3.73
2019-03-25T02:23:20.429Z,3.65
2019-03-25T02:27:28.585Z,3.77
2019-03-25T02:31:37.277Z,3.33
2019-03-25T02:35:45.653Z,3.65
2019-03-25T02:39:53.922Z,3.64
2019-03-25T02:44:03.325Z,2.83
2019-03-25T02:48:11.742Z,2.62
2019-03-25T02:52:20.122Z,3.33
2019-03-25T02:56:28.584Z,3.53
2019-03-25T03:00:38.478Z,3.92
2019-03-25T03:04:47.010Z,3.95
2019-03-25T03:08:56.005Z,4.04
2019-03-25T03:13:04.460Z,3.83
2019-03-25T03:17:13.063Z,3.63
2019-03-25T03:21:21.705Z,3.71
2019-03-25T03:25:30.850Z,3.75
2019-03-25T03:29:39.403Z,3.86
2019-03-25T03:33:48.014Z,3.99
2019-03-25T03:37:56.324Z,3.60
2019-03-25T03:42:05.272Z,3.64
2019-03-25T03:46:14.009Z,3.78
2019-03-25T03:50:27.349Z,3.74
2019-03-25T03:54:36.887Z,3.52
2019-03-25T03:58:46.091Z,3.69
2019-03-25T04:02:54.339Z,3.86
2019-03-25T04:07:03.099Z,3.74
2019-03-25T04:11:11.520Z,3.70
2019-03-25T04:15:26.589Z,3.63
2019-03-25T04:19:34.902Z,3.65
2019-03-25T04:23:46.319Z,3.63
2019-03-25T04:27:53.307Z,3.86
2019-03-25T04:32:01.711Z,3.80
2019-03-25T04:36:10.128Z,3.83
2019-03-25T04:40:18.637Z,3.81
2019-03-25T04:44:27.018Z,4.04
2019-03-25T04:48:35.118Z,4.16
2019-03-25T04:52:43.932Z,4.44
2019-03-25T04:56:52.267Z,4.76
2019-03-25T05:01:00.579Z,5.14
2019-03-25T05:05:10.338Z,5.52
2019-03-25T05:09:18.878Z,5.50
2019-03-25T05:13:27.684Z,5.75
2019-03-25T05:17:36.016Z,6.43
2019-03-25T05:21:44.337Z,7.02
2019-03-25T05:25:52.888Z,7.41
2019-03-25T05:30:02.136Z,7.99
2019-03-25T05:34:10.326Z,8.60
2019-03-25T05:38:18.835Z,9.27
2019-03-25T05:42:27.581Z,9.42
2019-03-25T05:46:35.935Z,10.05
2019-03-25T05:50:44.671Z,9.83
2019-03-25T05:54:53.295Z,9.53
2019-03-25T05:59:02.539Z,9.97
2019-03-25T06:03:10.836Z,9.74
2019-03-25T06:07:19.244Z,9.85
2019-03-25T06:11:27.664Z,10.18
2019-03-25T06:15:35.817Z,11.46
2019-03-25T06:19:44.226Z,11.37
2019-03-25T06:23:53.101Z,12.06
2019-03-25T06:28:01.363Z,12.28
2019-03-25T06:32:10.127Z,12.83
2019-03-25T06:36:18.677Z,13.13
2019-03-25T06:40:26.946Z,12.63
2019-03-25T06:44:35.393Z,13.76
2019-03-25T06:48:43.760Z,13.59
2019-03-25T06:52:52.130Z,14.66
2019-03-25T06:57:00.707Z,14.64
2019-03-25T07:01:09.587Z,14.98
2019-03-25T07:05:17.925Z,14.52
2019-03-25T07:09:26.263Z,14.03
2019-03-25T07:13:34.567Z,15.75
2019-03-25T07:17:44.336Z,16.05
2019-03-25T07:21:53.058Z,15.18
2019-03-25T07:26:01.468Z,14.68
2019-03-25T07:30:11.472Z,15.02
2019-03-25T07:34:20.465Z,15.83
2019-03-25T07:38:28.696Z,16.04
2019-03-25T07:42:36.927Z,16.38
2019-03-25T07:46:45.784Z,17.01
2019-03-25T07:50:53.892Z,15.75
2019-03-25T07:55:02.414Z,17.32
2019-03-25T07:59:10.623Z,17.58
2019-03-25T08:03:18.853Z,17.71
2019-03-25T08:07:27.489Z,17.71
2019-03-25T08:11:35.609Z,17.68
2019-03-25T08:15:44.436Z,17.70
2019-03-25T08:19:52.855Z,18.33
2019-03-25T08:24:01.154Z,18.42
2019-03-25T08:28:10.004Z,18.72
2019-03-25T08:32:18.735Z,19.38
2019-03-25T08:36:27.137Z,19.73
2019-03-25T08:40:35.681Z,19.18
2019-03-25T08:44:44.535Z,19.61
2019-03-25T08:48:52.817Z,19.62
2019-03-25T08:53:01.257Z,19.74
2019-03-25T08:57:09.476Z,19.91
2019-03-25T09:01:18.325Z,20.44
2019-03-25T09:05:27.238Z,19.46
2019-03-25T09:09:35.564Z,19.82
2019-03-25T09:13:44.075Z,21.12
2019-03-25T09:17:52.427Z,20.98
2019-03-25T09:22:00.642Z,21.45
2019-03-25T09:26:10.101Z,21.34
2019-03-25T09:30:53.111Z,20.94
2019-03-25T09:35:01.978Z,21.19
2019-03-25T09:39:10.907Z,21.58
2019-03-25T09:43:19.231Z,22.00
2019-03-25T09:47:28.061Z,21.66
2019-03-25T09:51:36.877Z,22.27
2019-03-25T09:55:45.047Z,22.65
2019-03-25T09:59:53.711Z,22.47
2019-03-25T10:04:02.066Z,22.97
2019-03-25T10:08:10.581Z,23.47
2019-03-25T10:12:19.319Z,22.39
2019-03-25T10:16:27.650Z,23.50
2019-03-25T10:20:35.967Z,22.88
2019-03-25T10:24:45.318Z,22.86
2019-03-25T10:28:53.593Z,22.72
2019-03-25T10:33:02.050Z,22.47
2019-03-25T10:37:11.507Z,22.73
2019-03-25T10:41:19.725Z,22.54
2019-03-25T10:45:28.453Z,22.61
2019-03-25T10:49:37.077Z,21.44
2019-03-25T10:53:45.385Z,21.98
2019-03-25T10:57:53.829Z,21.02
2019-03-25T11:02:02.138Z,21.23
2019-03-25T11:06:10.566Z,21.36
2019-03-25T11:10:19.517Z,21.15
2019-03-25T11:14:27.847Z,20.46
2019-03-25T11:18:36.328Z,20.93
2019-03-25T11:22:44.777Z,22.10
2019-03-25T11:26:53.038Z,21.37
2019-03-25T11:31:01.625Z,20.60
2019-03-25T11:35:11.895Z,21.52
2019-03-25T11:39:20.125Z,20.76
2019-03-25T11:43:28.876Z,20.60
2019-03-25T11:47:37.556Z,20.98
2019-03-25T11:51:45.901Z,20.34
2019-03-25T11:55:54.376Z,19.76
2019-03-25T12:00:02.542Z,20.36
2019-03-25T12:04:13.990Z,19.51
2019-03-25T12:08:22.449Z,20.97
2019-03-25T12:12:30.800Z,20.94
2019-03-25T12:16:39.622Z,19.36
2019-03-25T12:20:48.449Z,20.29
2019-03-25T12:24:56.547Z,19.45
2019-03-25T12:29:05.090Z,19.15
2019-03-25T12:33:13.530Z,19.10
2019-03-25T12:37:21.973Z,18.20
2019-03-25T12:41:31.691Z,18.14
2019-03-25T12:45:40.527Z,18.71
2019-03-25T12:49:48.849Z,18.63
2019-03-25T12:53:57.199Z,18.26
2019-03-25T12:58:07.407Z,18.26
2019-03-25T13:02:15.575Z,19.20
2019-03-25T13:06:24.293Z,18.51
2019-03-25T13:10:32.744Z,18.93
2019-03-25T13:14:41.143Z,18.07
2019-03-25T13:18:50.061Z,18.41
2019-03-25T13:22:58.302Z,18.53
2019-03-25T13:27:06.630Z,18.15
2019-03-25T13:31:15.224Z,18.13
2019-03-25T13:35:23.678Z,17.53
2019-03-25T13:39:32.014Z,17.37
2019-03-25T13:43:40.335Z,17.28
2019-03-25T13:47:48.860Z,17.92
2019-03-25T13:51:57.392Z,17.27
2019-03-25T13:56:05.589Z,17.38
2019-03-25T14:00:14.361Z,17.24
2019-03-25T14:04:22.743Z,16.30
2019-03-25T14:08:30.972Z,16.94
2019-03-25T14:12:39.417Z,17.16
2019-03-25T14:16:47.610Z,17.16
2019-03-25T14:20:56.139Z,15.99
2019-03-25T14:25:04.787Z,15.81
2019-03-25T14:29:13.078Z,15.76
2019-03-25T14:33:21.913Z,15.59
2019-03-25T14:37:30.240Z,15.36
2019-03-25T14:41:38.761Z,14.85
2019-03-25T14:45:47.550Z,14.91
2019-03-25T14:49:55.825Z,14.80
2019-03-25T14:54:04.152Z,14.43
2019-03-25T14:58:12.474Z,14.32
2019-03-25T15:02:20.761Z,14.44
2019-03-25T15:06:29.300Z,14.27
2019-03-25T15:10:39.080Z,14.27
2019-03-25T15:14:47.222Z,14.09
2019-03-25T15:18:56.002Z,14.08
2019-03-25T15:23:04.251Z,14.00
2019-03-25T15:27:13.071Z,13.70
2019-03-25T15:31:21.894Z,13.68
2019-03-25T15:35:30.352Z,13.61
2019-03-25T15:39:46.775Z,13.58
2019-03-25T15:43:50.164Z,13.36
2019-03-25T15:47:58.381Z,13.30
2019-03-25T15:52:07.126Z,13.06
2019-03-25T15:56:15.840Z,12.93
2019-03-25T16:00:24.277Z,13.06
2019-03-25T16:04:32.612Z,12.87
2019-03-25T16:08:41.127Z,13.02
2019-03-25T16:12:49.559Z,12.87
2019-03-25T16:16:58.363Z,12.73
2019-03-25T16:21:07.883Z,12.53
2019-03-25T16:25:27.379Z,12.40
2019-03-25T16:29:35.730Z,12.59
2019-03-25T16:33:44.241Z,12.47
2019-03-25T16:37:52.886Z,12.52
2019-03-25T16:42:01.711Z,12.31
2019-03-25T16:46:09.949Z,12.13
2019-03-25T16:50:18.371Z,12.09
2019-03-25T16:54:26.593Z,12.03
2019-03-25T16:58:34.723Z,12.05
2019-03-25T17:02:43.230Z,11.85
2019-03-25T17:06:51.451Z,11.93
2019-03-25T17:11:00.292Z,11.91
2019-03-25T17:15:09.521Z,11.91
2019-03-25T17:19:18.231Z,11.90
2019-03-25T17:23:26.802Z,11.81
2019-03-25T17:27:35.518Z,11.91
2019-03-25T17:31:44.267Z,11.83
2019-03-25T17:35:52.790Z,11.98
2019-03-25T17:40:01.010Z,11.93
2019-03-25T17:44:09.923Z,11.87
2019-03-25T17:48:18.257Z,11.96
2019-03-25T17:52:26.669Z,11.93
2019-03-25T17:56:35.315Z,12.12
2019-03-25T18:01:19.332Z,12.22
2019-03-25T18:05:28.106Z,12.19
2019-03-25T18:09:36.416Z,12.12
2019-03-25T18:13:44.776Z,11.95
2019-03-25T18:17:53.175Z,11.65
2019-03-25T18:22:02.719Z,11.59
2019-03-25T18:26:12.171Z,11.44
2019-03-25T18:30:23.660Z,11.22
2019-03-25T18:34:32.515Z,10.89
2019-03-25T18:38:40.944Z,10.73
2019-03-25T18:42:49.750Z,10.67
2019-03-25T18:46:58.088Z,10.48
2019-03-25T18:51:06.428Z,10.25
2019-03-25T18:55:14.741Z,10.18
2019-03-25T18:59:23.154Z,10.12
2019-03-25T19:03:32.770Z,9.95
2019-03-25T19:07:44.222Z,9.88
2019-03-25T19:11:52.479Z,9.92
2019-03-25T19:16:00.861Z,9.89
2019-03-25T19:20:11.722Z,9.75
2019-03-25T19:24:19.974Z,9.79
2019-03-25T19:28:28.369Z,9.91
2019-03-25T19:32:37.125Z,9.95
2019-03-25T19:36:45.403Z,10.02
2019-03-25T19:40:54.386Z,9.75
2019-03-25T19:45:03.806Z,9.58
2019-03-25T19:49:12.123Z,9.70
2019-03-25T19:53:22.155Z,9.42
2019-03-25T19:57:30.571Z,9.25
2019-03-25T20:01:39.441Z,9.17
2019-03-25T20:05:48.312Z,8.98
2019-03-25T20:09:56.634Z,8.89
2019-03-25T20:14:05.547Z,8.98
2019-03-25T20:18:14.675Z,8.88
2019-03-25T20:22:22.917Z,8.59
2019-03-25T20:26:31.948Z,8.44
2019-03-25T20:30:40.406Z,8.43
2019-03-25T20:34:49.811Z,8.49
2019-03-25T20:38:58.493Z,8.50
2019-03-25T20:43:06.676Z,8.30
2019-03-25T20:47:15.515Z,7.66
2019-03-25T20:51:24.157Z,8.02
2019-03-25T20:55:32.590Z,8.08
2019-03-25T20:59:40.960Z,8.15
2019-03-25T21:03:49.803Z,8.16
2019-03-25T21:07:58.126Z,8.02
2019-03-25T21:12:07.022Z,7.92
2019-03-25T21:16:15.867Z,8.10
2019-03-25T21:20:24.010Z,7.97
2019-03-25T21:24:32.263Z,7.79
2019-03-25T21:28:40.635Z,7.82
2019-03-25T21:32:58.111Z,7.82
2019-03-25T21:37:01.093Z,7.76
2019-03-25T21:41:09.314Z,7.54
2019-03-25T21:45:17.817Z,7.74
2019-03-25T21:49:26.198Z,7.92
2019-03-25T21:53:34.561Z,7.90
2019-03-25T21:57:43.260Z,7.81
2019-03-25T22:01:51.527Z,7.62
2019-03-25T22:05:59.740Z,7.86
2019-03-25T22:10:08.926Z,7.57
2019-03-25T22:14:17.619Z,7.19
2019-03-25T22:18:25.975Z,7.38
2019-03-25T22:22:34.662Z,7.35
2019-03-25T22:26:44.242Z,7.36
2019-03-25T22:30:52.527Z,6.90
2019-03-25T22:35:00.983Z,7.01
2019-03-25T22:39:09.382Z,7.26
2019-03-25T22:43:17.818Z,7.29
2019-03-25T22:47:26.280Z,7.08
2019-03-25T22:51:34.548Z,7.31
2019-03-25T22:55:43.127Z,7.24
2019-03-25T22:59:51.485Z,7.07
2019-03-25T23:03:59.728Z,7.08
2019-03-25T23:08:09.380Z,6.85
2019-03-25T23:12:18.624Z,7.06
2019-03-25T23:16:26.966Z,6.89
2019-03-25T23:20:35.782Z,6.99
2019-03-25T23:24:45.270Z,7.05
2019-03-25T23:28:53.334Z,7.19
2019-03-25T23:33:02.539Z,6.83
2019-03-25T23:37:10.797Z,6.92
2019-03-25T23:41:19.165Z,7.08
2019-03-25T23:45:27.976Z,7.17
2019-03-25T23:49:36.377Z,7.03
2019-03-25T23:53:46.463Z,6.95
2019-03-25T23:57:55.136Z,7.09
